createdAt,value
2019-01-19T00:02:59.978Z,7.90
2019-01-19T00:06:12.105Z,7.57
2019-01-19T00:08:58.282Z,7.03
2019-01-19T00:11:59.424Z,7.03
2019-01-19T00:15:00.865Z,7.63
2019-01-19T00:18:07.233Z,7.10
2019-01-19T00:21:33.948Z,6.95
2019-01-19T00:24:56.793Z,7.70
2019-01-19T00:27:53.764Z,7.57
2019-01-19T00:31:01.412Z,8.23
2019-01-19T00:33:58.676Z,7.50
2019-01-19T00:37:08.933Z,8.17
2019-01-19T00:40:17.510Z,7.67
2019-01-19T00:43:18.472Z,8.33
2019-01-19T00:46:33.083Z,8.33
2019-01-19T00:49:21.243Z,7.77
2019-01-19T00:52:17.442Z,8.05
2019-01-19T00:55:05.573Z,7.80
2019-01-19T00:58:16.730Z,7.92
2019-01-19T01:00:56.709Z,7.83
2019-01-19T01:03:38.336Z,8.37
2019-01-19T01:06:39.446Z,8.08
2019-01-19T01:09:07.320Z,8.68
2019-01-19T01:12:09.999Z,7.20
2019-01-19T01:15:08.843Z,9.60
2019-01-19T01:17:49.165Z,8.53
2019-01-19T01:21:25.071Z,8.80
2019-01-19T01:24:35.647Z,8.60
2019-01-19T01:27:37.618Z,8.70
2019-01-19T01:30:51.447Z,7.77
2019-01-19T01:33:44.797Z,7.50
2019-01-19T01:36:47.347Z,8.53
2019-01-19T01:39:43.065Z,6.65
2019-01-19T01:43:09.786Z,8.50
2019-01-19T01:46:09.260Z,8.30
2019-01-19T01:49:19.732Z,9.07
2019-01-19T01:52:12.583Z,7.37
2019-01-19T01:55:16.977Z,8.20
2019-01-19T01:58:18.420Z,9.00
2019-01-19T02:01:13.334Z,7.17
2019-01-19T02:04:18.025Z,7.58
2019-01-19T02:07:28.434Z,7.77
2019-01-19T02:10:40.054Z,7.42
2019-01-19T02:13:29.329Z,6.22
2019-01-19T02:16:36.976Z,5.63
2019-01-19T02:19:39.879Z,7.03
2019-01-19T02:23:00.403Z,9.33
2019-01-19T02:29:01.817Z,8.55
2019-01-19T02:32:15.474Z,8.90
2019-01-19T02:35:16.781Z,6.90
2019-01-19T02:38:34.679Z,7.80
2019-01-19T02:41:44.932Z,8.00
2019-01-19T02:44:49.042Z,7.57
2019-01-19T02:47:41.941Z,8.00
2019-01-19T02:50:29.651Z,8.60
2019-01-19T02:53:40.152Z,9.33
2019-01-19T02:56:23.555Z,10.97
2019-01-19T02:59:26.874Z,10.37
2019-01-19T03:02:20.640Z,7.43
2019-01-19T03:04:58.850Z,9.93
2019-01-19T03:07:45.556Z,9.73
2019-01-19T03:11:01.637Z,9.13
2019-01-19T03:14:10.590Z,9.50
2019-01-19T03:17:20.664Z,9.77
2019-01-19T03:20:17.684Z,8.97
2019-01-19T03:23:21.044Z,7.28
2019-01-19T03:26:03.553Z,8.53
2019-01-19T03:28:51.477Z,8.80
2019-01-19T03:31:53.589Z,8.28
2019-01-19T03:35:20.839Z,9.43
2019-01-19T03:38:28.982Z,9.87
2019-01-19T03:41:40.379Z,9.67
2019-01-19T03:45:00.845Z,10.00
2019-01-19T03:47:55.849Z,9.60
2019-01-19T03:50:41.439Z,8.67
2019-01-19T03:53:49.900Z,9.07
2019-01-19T03:56:50.217Z,9.80
2019-01-19T03:59:40.519Z,8.43
2019-01-19T04:02:54.385Z,8.68
2019-01-19T04:05:57.414Z,10.43
2019-01-19T04:09:11.587Z,7.10
2019-01-19T04:12:42.721Z,9.73
2019-01-19T04:15:28.043Z,8.97
2019-01-19T04:18:20.784Z,10.97
2019-01-19T04:21:11.544Z,8.78
2019-01-19T04:23:46.053Z,9.80
2019-01-19T04:26:41.971Z,7.70
2019-01-19T04:29:12.878Z,9.00
2019-01-19T04:31:43.912Z,9.07
2019-01-19T04:34:15.080Z,10.33
2019-01-19T04:36:46.573Z,9.60
2019-01-19T04:39:18.217Z,9.18
2019-01-19T04:41:49.446Z,9.90
2019-01-19T04:44:21.106Z,8.00
2019-01-19T04:46:52.201Z,8.13
2019-01-19T04:49:23.358Z,10.10
2019-01-19T04:51:54.467Z,7.20
2019-01-19T04:54:25.703Z,8.80
2019-01-19T04:56:56.850Z,10.07
2019-01-19T04:59:27.901Z,10.30
2019-01-19T05:01:59.724Z,10.23
2019-01-19T05:04:31.376Z,8.97
2019-01-19T05:07:03.094Z,8.35
2019-01-19T05:09:34.189Z,9.70
2019-01-19T05:12:05.989Z,8.17
2019-01-19T05:14:36.861Z,8.37
2019-01-19T05:17:08.010Z,10.17
2019-01-19T05:19:39.147Z,10.93
2019-01-19T05:22:10.301Z,8.80
2019-01-19T05:24:41.549Z,9.20
2019-01-19T05:27:12.713Z,9.03
2019-01-19T05:29:43.833Z,8.73
2019-01-19T05:32:15.583Z,9.00
2019-01-19T05:34:46.764Z,9.30
2019-01-19T05:37:18.020Z,9.03
2019-01-19T05:39:48.965Z,9.78
2019-01-19T05:42:19.895Z,10.03
2019-01-19T05:44:50.654Z,9.87
2019-01-19T05:47:21.619Z,7.83
2019-01-19T05:49:52.455Z,9.77
2019-01-19T05:52:23.337Z,8.90
2019-01-19T05:54:54.385Z,12.23
2019-01-19T05:57:25.256Z,7.57
2019-01-19T05:59:56.150Z,8.93
2019-01-19T06:02:28.495Z,9.57
2019-01-19T06:04:58.462Z,23.70
2019-01-19T06:07:29.504Z,9.03
2019-01-19T06:10:00.289Z,8.70
2019-01-19T06:12:31.341Z,9.20
2019-01-19T06:15:02.281Z,8.80
2019-01-19T06:17:33.314Z,7.87
2019-01-19T06:20:04.681Z,10.50
2019-01-19T06:22:35.668Z,9.17
2019-01-19T06:25:07.582Z,9.00
2019-01-19T06:27:38.690Z,9.90
2019-01-19T06:30:13.377Z,9.70
2019-01-19T06:32:44.382Z,9.60
2019-01-19T06:35:15.376Z,9.20
2019-01-19T06:37:46.502Z,8.07
2019-01-19T06:40:17.934Z,9.30
2019-01-19T06:42:51.951Z,8.97
2019-01-19T06:45:27.379Z,11.37
2019-01-19T06:47:59.414Z,10.97
2019-01-19T06:50:30.231Z,12.13
2019-01-19T06:53:01.199Z,12.83
2019-01-19T06:55:36.549Z,12.33
2019-01-19T06:58:07.576Z,10.97
2019-01-19T07:00:38.347Z,10.83
2019-01-19T07:03:09.270Z,12.03
2019-01-19T07:05:40.199Z,12.20
2019-01-19T07:08:11.306Z,13.90
2019-01-19T07:10:42.655Z,12.40
2019-01-19T07:13:13.613Z,11.60
2019-01-19T07:15:44.809Z,12.57
2019-01-19T07:18:15.789Z,14.37
2019-01-19T07:20:47.221Z,12.93
2019-01-19T07:23:18.619Z,11.23
2019-01-19T07:25:49.919Z,11.73
2019-01-19T07:28:21.189Z,12.00
2019-01-19T07:30:52.859Z,15.60
2019-01-19T07:33:25.247Z,13.43
2019-01-19T07:35:57.224Z,13.60
2019-01-19T07:38:29.159Z,14.40
2019-01-19T07:41:00.237Z,12.47
2019-01-19T07:43:31.893Z,12.80
2019-01-19T07:46:03.991Z,11.10
2019-01-19T07:48:35.184Z,12.97
2019-01-19T07:51:06.417Z,13.00
2019-01-19T07:53:37.469Z,12.43
2019-01-19T07:56:08.535Z,12.00
2019-01-19T07:58:40.268Z,11.30
2019-01-19T08:01:11.869Z,11.30
2019-01-19T08:03:43.382Z,11.23
2019-01-19T08:06:14.421Z,13.33
2019-01-19T08:08:45.617Z,12.97
2019-01-19T08:11:16.892Z,11.10
2019-01-19T08:13:48.115Z,9.93
2019-01-19T08:16:19.361Z,12.43
2019-01-19T08:18:50.818Z,13.07
2019-01-19T08:21:22.266Z,12.00
2019-01-19T08:23:53.243Z,13.70
2019-01-19T08:26:24.123Z,14.47
2019-01-19T08:28:55.366Z,12.83
2019-01-19T08:31:26.549Z,14.13
2019-01-19T08:33:57.910Z,14.50
2019-01-19T08:36:29.279Z,12.30
2019-01-19T08:39:00.620Z,12.67
2019-01-19T08:41:33.157Z,14.73
2019-01-19T08:44:07.150Z,13.27
2019-01-19T08:46:38.640Z,13.57
2019-01-19T08:49:10.093Z,18.23
2019-01-19T08:51:41.770Z,17.83
2019-01-19T08:54:13.693Z,15.50
2019-01-19T08:56:45.007Z,12.43
2019-01-19T08:59:16.663Z,16.80
2019-01-19T09:01:47.840Z,18.13
2019-01-19T09:04:19.353Z,14.40
2019-01-19T09:06:50.538Z,14.97
2019-01-19T09:09:21.955Z,14.63
2019-01-19T09:11:53.043Z,12.83
2019-01-19T09:14:23.582Z,11.50
2019-01-19T09:16:54.865Z,14.00
2019-01-19T09:19:26.121Z,15.37
2019-01-19T09:21:57.596Z,11.23
2019-01-19T09:24:30.401Z,14.63
2019-01-19T09:27:01.551Z,16.43
2019-01-19T09:29:32.852Z,14.83
2019-01-19T09:32:04.901Z,14.83
2019-01-19T09:34:36.490Z,15.67
2019-01-19T09:37:06.838Z,15.70
2019-01-19T09:39:38.497Z,12.90
2019-01-19T09:42:10.220Z,13.43
2019-01-19T09:44:41.822Z,12.53
2019-01-19T09:47:13.486Z,13.30
2019-01-19T09:49:43.941Z,12.80
2019-01-19T09:52:21.160Z,12.70
2019-01-19T09:54:48.420Z,14.40
2019-01-19T09:57:20.168Z,12.03
2019-01-19T09:59:51.859Z,11.63
2019-01-19T10:02:23.368Z,10.90
2019-01-19T10:04:54.727Z,10.00
2019-01-19T10:07:27.394Z,13.27
2019-01-19T10:09:59.204Z,13.80
2019-01-19T10:12:31.991Z,10.83
2019-01-19T10:15:03.800Z,11.70
2019-01-19T10:17:36.380Z,12.17
2019-01-19T10:20:10.433Z,13.20
2019-01-19T10:22:42.174Z,13.30
2019-01-19T10:25:14.761Z,10.13
2019-01-19T10:27:46.367Z,11.80
2019-01-19T10:30:23.255Z,9.50
2019-01-19T10:32:54.643Z,9.80
2019-01-19T10:35:26.408Z,11.23
2019-01-19T10:37:58.401Z,9.97
2019-01-19T10:40:30.029Z,18.63
2019-01-19T10:43:01.745Z,44.00
2019-01-19T10:45:33.230Z,9.47
2019-01-19T10:48:05.457Z,12.10
2019-01-19T10:50:36.829Z,11.27
2019-01-19T10:53:08.494Z,12.00
2019-01-19T10:55:39.821Z,13.43
2019-01-19T10:58:11.186Z,10.87
2019-01-19T11:00:42.836Z,12.27
2019-01-19T11:03:14.435Z,11.23
2019-01-19T11:05:45.836Z,10.23
2019-01-19T11:08:17.555Z,11.27
2019-01-19T11:10:48.908Z,10.63
2019-01-19T11:13:20.534Z,9.37
2019-01-19T11:15:51.816Z,10.53
2019-01-19T11:18:26.041Z,10.07
2019-01-19T11:20:57.439Z,9.67
2019-01-19T11:23:28.765Z,11.20
2019-01-19T11:26:00.018Z,11.60
2019-01-19T11:28:31.463Z,11.57
2019-01-19T11:31:03.003Z,9.93
2019-01-19T11:33:34.455Z,11.63
2019-01-19T11:36:06.066Z,11.33
2019-01-19T11:38:37.120Z,9.83
2019-01-19T11:41:08.454Z,11.27
2019-01-19T11:43:39.673Z,9.30
2019-01-19T11:46:11.181Z,10.23
2019-01-19T11:48:42.575Z,9.23
2019-01-19T11:51:13.721Z,10.00
2019-01-19T11:53:44.962Z,9.37
2019-01-19T11:58:46.568Z,9.17
2019-01-19T12:01:18.869Z,9.03
2019-01-19T12:03:50.275Z,8.63
2019-01-19T12:06:21.553Z,8.40
2019-01-19T12:08:52.947Z,10.37
2019-01-19T12:11:24.344Z,8.90
2019-01-19T12:13:55.800Z,7.80
2019-01-19T12:16:27.031Z,8.80
2019-01-19T12:18:58.346Z,6.03
2019-01-19T12:21:29.625Z,6.30
2019-01-19T12:24:00.861Z,7.93
2019-01-19T12:26:33.132Z,9.80
2019-01-19T12:29:04.332Z,8.37
2019-01-19T12:31:35.592Z,10.37
2019-01-19T12:34:07.259Z,8.70
2019-01-19T12:36:38.684Z,8.47
2019-01-19T12:39:10.216Z,9.00
2019-01-19T12:41:41.451Z,9.30
2019-01-19T12:44:12.898Z,9.70
2019-01-19T12:46:44.400Z,11.53
2019-01-19T12:49:15.799Z,14.10
2019-01-19T12:51:47.170Z,15.77
2019-01-19T12:54:18.783Z,14.03
2019-01-19T12:56:49.855Z,13.00
2019-01-19T13:01:51.544Z,13.27
2019-01-19T13:04:22.935Z,13.60
2019-01-19T13:07:19.563Z,12.23
2019-01-19T13:09:57.136Z,10.30
2019-01-19T13:13:00.764Z,13.90
2019-01-19T13:16:37.557Z,10.57
2019-01-19T13:19:38.917Z,18.47
2019-01-19T13:22:57.709Z,13.07
2019-01-19T13:26:23.948Z,11.33
2019-01-19T13:29:45.181Z,9.30
2019-01-19T13:32:57.003Z,12.50
2019-01-19T13:36:26.941Z,10.67
2019-01-19T13:39:14.819Z,9.13
2019-01-19T13:42:39.186Z,9.27
2019-01-19T13:45:46.253Z,10.23
2019-01-19T13:48:58.633Z,8.50
2019-01-19T13:52:07.291Z,9.00
2019-01-19T13:55:18.675Z,10.30
2019-01-19T13:58:28.260Z,10.63
2019-01-19T14:01:49.271Z,9.70
2019-01-19T14:07:58.351Z,8.33
2019-01-19T14:10:55.301Z,8.13
2019-01-19T14:14:16.844Z,9.10
2019-01-19T14:17:15.450Z,8.70
2019-01-19T14:20:00.206Z,8.43
2019-01-19T14:23:10.930Z,8.90
2019-01-19T14:26:04.400Z,8.60
2019-01-19T14:29:11.457Z,8.40
2019-01-19T14:32:19.093Z,11.60
2019-01-19T14:35:21.614Z,12.60
2019-01-19T14:38:32.406Z,15.80
2019-01-19T14:41:24.360Z,15.97
2019-01-19T14:44:29.832Z,17.13
2019-01-19T14:47:26.222Z,14.23
2019-01-19T14:50:24.457Z,17.87
2019-01-19T14:53:52.354Z,11.33
2019-01-19T14:57:19.339Z,13.87
2019-01-19T15:00:20.617Z,14.87
2019-01-19T15:03:14.208Z,14.20
2019-01-19T15:06:10.268Z,15.70
2019-01-19T15:09:03.950Z,17.90
2019-01-19T15:11:58.223Z,19.13
2019-01-19T15:15:01.925Z,18.63
2019-01-19T15:17:58.504Z,13.20
2019-01-19T15:20:45.428Z,14.47
2019-01-19T15:23:52.901Z,13.93
2019-01-19T15:26:59.770Z,14.17
2019-01-19T15:30:16.459Z,12.33
2019-01-19T15:33:04.246Z,15.40
2019-01-19T15:36:03.180Z,12.17
2019-01-19T15:38:59.783Z,13.33
2019-01-19T15:41:52.519Z,13.80
2019-01-19T15:44:54.189Z,13.47
2019-01-19T15:48:07.890Z,14.23
2019-01-19T15:51:31.581Z,13.50
2019-01-19T15:54:43.641Z,13.13
2019-01-19T15:57:33.538Z,14.50
2019-01-19T16:00:17.945Z,12.73
2019-01-19T16:03:15.429Z,14.77
2019-01-19T16:06:35.788Z,12.20
2019-01-19T16:09:56.618Z,14.40
2019-01-19T16:12:59.254Z,14.00
2019-01-19T16:16:17.380Z,12.53
2019-01-19T16:19:18.632Z,12.13
2019-01-19T16:22:38.485Z,15.17
2019-01-19T16:25:30.069Z,13.93
2019-01-19T16:29:03.210Z,12.83
2019-01-19T16:32:19.884Z,18.97
2019-01-19T16:35:26.098Z,17.23
2019-01-19T16:38:42.539Z,19.00
2019-01-19T16:41:43.103Z,16.73
2019-01-19T16:44:51.012Z,17.23
2019-01-19T16:47:58.815Z,19.00
2019-01-19T16:51:13.322Z,19.77
2019-01-19T16:54:05.317Z,17.83
2019-01-19T16:57:24.850Z,16.33
2019-01-19T17:00:36.971Z,16.03
2019-01-19T17:03:30.987Z,16.07
2019-01-19T17:07:07.429Z,17.53
2019-01-19T17:10:12.819Z,16.47
2019-01-19T17:13:21.943Z,15.03
2019-01-19T17:16:26.254Z,14.80
2019-01-19T17:19:48.429Z,14.43
2019-01-19T17:22:55.338Z,13.93
2019-01-19T17:25:54.007Z,15.10
2019-01-19T17:28:43.201Z,15.43
2019-01-19T17:31:57.834Z,14.67
2019-01-19T17:34:52.115Z,15.83
2019-01-19T17:38:07.207Z,16.60
2019-01-19T17:41:21.617Z,16.37
2019-01-19T17:44:30.837Z,15.77
2019-01-19T17:47:40.207Z,15.37
2019-01-19T17:50:51.084Z,13.93
2019-01-19T17:54:10.831Z,14.17
2019-01-19T17:57:09.852Z,14.70
2019-01-19T18:00:15.751Z,17.10
2019-01-19T18:03:15.094Z,16.47
2019-01-19T18:06:39.485Z,16.47
2019-01-19T18:09:32.409Z,15.77
2019-01-19T18:12:32.808Z,16.73
2019-01-19T18:15:29.221Z,18.37
2019-01-19T18:18:41.452Z,17.63
2019-01-19T18:21:41.258Z,16.07
2019-01-19T18:27:42.591Z,17.37
2019-01-19T18:31:15.034Z,15.43
2019-01-19T18:33:55.951Z,17.23
2019-01-19T18:37:12.629Z,13.57
2019-01-19T18:40:22.892Z,16.77
2019-01-19T18:43:12.401Z,15.20
2019-01-19T18:46:01.137Z,16.30
2019-01-19T18:49:09.088Z,15.60
2019-01-19T18:52:19.794Z,15.20
2019-01-19T18:55:25.327Z,14.83
2019-01-19T18:58:31.605Z,15.77
2019-01-19T19:01:46.534Z,15.33
2019-01-19T19:05:11.864Z,14.30
2019-01-19T19:08:14.648Z,15.13
2019-01-19T19:11:17.247Z,12.63
2019-01-19T19:14:11.931Z,14.20
2019-01-19T19:17:23.759Z,15.23
2019-01-19T19:20:24.065Z,14.30
2019-01-19T19:23:47.579Z,14.67
2019-01-19T19:26:58.012Z,17.63
2019-01-19T19:30:02.726Z,13.63
2019-01-19T19:33:09.062Z,12.90
2019-01-19T19:36:19.731Z,12.90
2019-01-19T19:39:40.687Z,12.87
2019-01-19T19:42:24.478Z,12.77
2019-01-19T19:45:42.717Z,12.90
2019-01-19T19:48:57.166Z,11.87
2019-01-19T19:52:06.294Z,12.43
2019-01-19T19:54:37.973Z,13.27
2019-01-19T19:57:08.944Z,12.87
2019-01-19T19:59:39.867Z,12.80
2019-01-19T20:02:10.889Z,12.77
2019-01-19T20:04:43.303Z,12.30
2019-01-19T20:07:14.469Z,13.30
2019-01-19T20:09:45.599Z,13.43
2019-01-19T20:12:20.277Z,13.43
2019-01-19T20:14:51.400Z,12.13
2019-01-19T20:17:23.315Z,11.67
2019-01-19T20:19:55.507Z,12.67
2019-01-19T20:22:26.959Z,12.33
2019-01-19T20:24:58.409Z,10.97
2019-01-19T20:27:29.697Z,11.03
2019-01-19T20:30:01.510Z,12.07
2019-01-19T20:32:35.956Z,11.57
2019-01-19T20:35:08.072Z,9.67
2019-01-19T20:37:39.373Z,12.93
2019-01-19T20:40:10.832Z,11.67
2019-01-19T20:42:41.963Z,13.07
2019-01-19T20:45:14.001Z,12.70
2019-01-19T20:47:45.068Z,13.30
2019-01-19T20:50:16.375Z,12.47
2019-01-19T20:52:47.797Z,14.37
2019-01-19T20:55:19.271Z,17.27
2019-01-19T20:57:50.716Z,14.77
2019-01-19T21:00:22.415Z,13.73
2019-01-19T21:02:53.830Z,14.13
2019-01-19T21:05:25.406Z,18.27
2019-01-19T21:07:56.615Z,11.13
2019-01-19T21:10:31.696Z,11.53
2019-01-19T21:13:00.288Z,11.57
2019-01-19T21:15:31.478Z,10.67
2019-01-19T21:18:02.555Z,11.60
2019-01-19T21:20:34.496Z,11.40
2019-01-19T21:23:05.879Z,11.90
2019-01-19T21:25:37.217Z,10.17
2019-01-19T21:28:08.518Z,10.60
2019-01-19T21:30:39.596Z,10.90
2019-01-19T21:33:10.738Z,12.27
2019-01-19T21:35:41.691Z,10.63
2019-01-19T21:38:12.703Z,12.03
2019-01-19T21:40:43.891Z,9.80
2019-01-19T21:43:15.169Z,9.97
2019-01-19T21:45:46.188Z,10.77
2019-01-19T21:48:19.529Z,10.43
2019-01-19T21:50:50.785Z,9.93
2019-01-19T21:53:22.240Z,9.50
2019-01-19T21:55:53.402Z,11.70
2019-01-19T21:58:24.538Z,13.80
2019-01-19T22:00:55.551Z,13.60
2019-01-19T22:03:26.544Z,13.20
2019-01-19T22:05:57.730Z,9.97
2019-01-19T22:08:28.849Z,9.20
2019-01-19T22:11:00.022Z,7.67
2019-01-19T22:13:32.161Z,9.30
2019-01-19T22:16:03.390Z,8.00
2019-01-19T22:18:34.469Z,9.17
2019-01-19T22:21:05.697Z,7.77
2019-01-19T22:23:36.890Z,6.87
2019-01-19T22:26:09.447Z,6.80
2019-01-19T22:28:40.472Z,7.30
2019-01-19T22:31:11.365Z,6.90
2019-01-19T22:33:42.725Z,6.97
2019-01-19T22:36:13.876Z,8.10
2019-01-19T22:38:44.957Z,7.13
2019-01-19T22:41:16.195Z,6.33
2019-01-19T22:43:47.599Z,7.30
2019-01-19T22:46:18.694Z,6.70
2019-01-19T22:48:49.803Z,7.13
2019-01-19T22:51:20.758Z,5.00
2019-01-19T22:53:52.136Z,7.07
2019-01-19T22:56:23.131Z,5.57
2019-01-19T22:58:54.380Z,5.83
2019-01-19T23:01:48.393Z,5.97
2019-01-19T23:04:19.871Z,6.67
2019-01-19T23:06:51.265Z,5.97
2019-01-19T23:09:25.512Z,6.00
2019-01-19T23:11:59.624Z,6.40
2019-01-19T23:14:47.405Z,8.57
2019-01-19T23:17:23.576Z,6.83
2019-01-19T23:19:57.447Z,7.33
2019-01-19T23:22:36.434Z,6.70
2019-01-19T23:25:13.638Z,7.67
2019-01-19T23:28:13.674Z,8.27
2019-01-19T23:30:45.011Z,8.03
2019-01-19T23:33:16.036Z,6.40
2019-01-19T23:36:03.447Z,6.60
2019-01-19T23:38:40.489Z,6.20
2019-01-19T23:41:22.895Z,5.37
2019-01-19T23:44:01.977Z,5.53
2019-01-19T23:46:37.650Z,5.90
2019-01-19T23:49:15.043Z,5.53
2019-01-19T23:51:47.458Z,5.93
2019-01-19T23:54:21.769Z,6.17
2019-01-19T23:56:53.172Z,6.00
2019-01-19T23:59:24.749Z,6.10
